Time;durP1;ratioP1;P1;durP2;ratioP2;P2;SDS_P1;SDS_P2;PMS_P1;PMS_P2;Temp;Humidity;BMP_temperature;BMP_pressure;BME280_temperature;BME280_humidity;BME280_pressure;Samples;Min_cycle;Max_cycle;Signal;HPM_P1;HPM_P2
2022/06/14 00:01:19;;;;;;;4.67;2.20;;;16.80;58.80;;;19.67;45.32;102219.81;5093915;28;20215;-63
2022/06/14 00:03:47;;;;;;;5.00;1.70;;;16.80;58.70;;;19.69;45.52;102214.25;5094079;28;20707;-64
2022/06/14 00:06:19;;;;;;;4.67;2.43;;;16.90;58.70;;;19.71;45.12;102210.34;5093807;28;20223;-64
2022/06/14 00:08:48;;;;;;;4.43;2.17;;;16.80;58.60;;;19.71;44.82;102205.00;5094178;28;20189;-64
2022/06/14 00:11:19;;;;;;;5.70;2.13;;;16.80;58.20;;;19.68;45.11;102199.25;5094313;28;20211;-63
2022/06/14 00:13:50;;;;;;;5.40;2.53;;;16.80;58.30;;;19.65;45.19;102197.81;5093693;28;20192;-63
2022/06/14 00:16:19;;;;;;;8.87;2.33;;;16.80;58.50;;;19.63;45.37;102194.50;5093832;28;20646;-63
2022/06/14 00:18:47;;;;;;;2.70;1.80;;;16.80;58.40;;;19.57;45.33;102195.28;5093790;28;20185;-64
2022/06/14 00:21:15;;;;;;;5.80;2.10;;;16.80;58.50;;;19.53;45.57;102196.72;5125584;27;20216;-62
2022/06/14 00:23:43;;;;;;;4.13;1.77;;;16.80;58.70;;;19.52;45.67;102189.72;5096554;28;20196;-64
2022/06/14 00:26:12;;;;;;;5.03;2.00;;;16.70;58.50;;;19.53;45.28;102200.22;5097801;28;20208;-64
2022/06/14 00:28:42;;;;;;;5.03;2.00;;;16.70;58.30;;;19.53;45.70;102196.72;5098830;28;20712;-62
2022/06/14 00:31:14;;;;;;;4.80;1.80;;;16.80;58.40;;;19.51;44.88;102204.09;5097324;28;20208;-63
2022/06/14 00:33:42;;;;;;;5.23;2.37;;;16.70;58.10;;;19.47;45.40;102208.16;5097713;28;20643;-64
2022/06/14 00:36:20;;;;;;;7.07;2.20;;;16.70;58.30;;;19.41;45.35;102198.28;5097622;28;20250;-63
2022/06/14 00:38:49;;;;;;;4.30;1.80;;;16.70;58.40;;;19.38;45.65;102204.00;5097690;28;20203;-63
2022/06/14 00:41:34;;;;;;;4.50;2.20;;;16.60;58.60;;;19.27;45.55;102215.22;5097265;28;20200;-63
2022/06/14 00:44:07;;;;;;;5.00;3.20;;;16.60;58.70;;;19.21;45.95;102218.66;5097547;28;20203;-63
2022/06/14 00:46:43;;;;;;;5.77;2.37;;;16.50;58.80;;;19.12;46.04;102219.81;5098382;28;20295;-63
2022/06/14 00:49:19;;;;;;;3.83;2.30;;;16.40;59.00;;;19.03;46.17;102216.47;5097523;28;20203;-63
2022/06/14 00:51:55;;;;;;;5.43;2.57;;;16.30;59.30;;;18.99;46.34;102214.38;5097111;28;20629;-63
2022/06/14 00:54:30;;;;;;;8.90;2.43;;;16.30;59.50;;;18.97;46.31;102217.22;5098745;28;20176;-63
2022/06/14 00:57:02;;;;;;;4.87;2.10;;;16.20;59.50;;;18.96;46.77;102214.78;5098024;28;20192;-63
2022/06/14 00:59:38;;;;;;;5.37;1.70;;;16.20;59.80;;;18.93;46.69;102207.97;5097856;28;20180;-64
2022/06/14 01:02:14;;;;;;;5.47;2.50;;;16.20;60.70;;;18.89;46.71;102204.88;5098246;28;20674;-64
2022/06/14 01:04:43;;;;;;;8.17;2.43;;;16.10;60.00;;;18.89;46.82;102215.56;5097417;28;20192;-63
2022/06/14 01:07:17;;;;;;;4.70;2.00;;;16.10;60.10;;;18.83;46.74;102213.63;5097291;28;20604;-64
2022/06/14 01:09:54;;;;;;;7.37;3.80;;;16.10;60.00;;;18.79;46.93;102204.38;5097461;28;20200;-64
2022/06/14 01:12:26;;;;;;;5.53;2.63;;;16.10;60.30;;;18.76;46.98;102204.75;5096938;28;20208;-62
2022/06/14 01:15:03;;;;;;;7.63;2.60;;;16.00;60.50;;;18.74;47.10;102213.97;5097450;28;20192;-64
2022/06/14 01:17:42;;;;;;;5.60;2.07;;;16.00;60.60;;;18.72;47.34;102208.00;5097463;28;20392;-63
2022/06/14 01:20:14;;;;;;;4.13;2.23;;;16.00;60.80;;;18.69;47.42;102205.69;5098359;28;20180;-63
2022/06/14 01:22:44;;;;;;;3.37;2.07;;;16.00;61.10;;;18.69;47.75;102195.03;5096696;28;20205;-64
2022/06/14 01:25:13;;;;;;;4.37;2.13;;;15.90;61.40;;;18.71;47.77;102201.00;5097102;28;20192;-64
2022/06/14 01:27:42;;;;;;;4.73;2.37;;;16.00;61.50;;;18.72;47.84;102203.50;5097175;28;20262;-64
2022/06/14 01:30:14;;;;;;;7.53;2.63;;;15.90;61.50;;;18.71;47.64;102196.50;5096938;28;20195;-63
2022/06/14 01:32:49;;;;;;;6.67;2.60;;;15.90;61.60;;;18.69;47.88;102203.88;5112179;28;20312;-64
2022/06/14 01:35:22;;;;;;;5.33;2.20;;;15.90;61.80;;;18.67;47.87;102205.06;5096727;28;20196;-63
2022/06/14 01:37:54;;;;;;;3.13;2.10;;;15.90;61.90;;;18.63;47.97;102218.00;5111343;28;20192;-62
2022/06/14 01:40:34;;;;;;;6.70;2.23;;;15.90;61.90;;;18.59;48.10;102208.69;5117100;28;20188;-62
2022/06/14 01:43:50;;;;;;;4.87;2.23;;;15.80;62.10;;;18.52;48.39;102207.81;5116890;28;20176;-63
2022/06/14 01:46:24;;;;;;;4.47;2.40;;;15.80;62.10;;;18.58;48.47;102199.06;5117570;28;20315;-63
2022/06/14 01:52:07;;;;;;;8.63;2.33;;;15.80;61.90;;;18.53;48.01;102216.63;5116535;28;20272;-63
2022/06/14 01:54:47;;;;;;;4.80;2.00;;;15.80;61.90;;;18.48;48.18;102221.72;5115362;28;20195;-63
2022/06/14 01:57:27;;;;;;;6.97;2.00;;;15.80;62.00;;;18.41;48.28;102215.44;5116941;28;20186;-63
2022/06/14 02:00:06;;;;;;;5.80;2.20;;;15.70;62.00;;;18.38;48.57;102214.00;5116581;28;20183;-62
2022/06/14 02:02:45;;;;;;;5.57;2.03;;;15.70;62.30;;;18.36;48.40;102218.69;5116006;28;20581;-63
2022/06/14 02:05:23;;;;;;;8.03;2.27;;;15.60;62.50;;;18.36;48.47;102218.69;5116448;28;20260;-63
2022/06/14 02:08:01;;;;;;;4.67;2.00;;;15.60;62.60;;;18.36;48.57;102208.03;5116468;27;20688;-64
2022/06/14 02:10:43;;;;;;;5.83;2.00;;;15.60;62.80;;;18.33;48.47;102221.72;5110989;28;20189;-63
2022/06/14 02:13:17;;;;;;;5.00;2.00;;;15.60;62.80;;;18.32;48.71;102217.44;5095833;28;20200;-63
2022/06/14 02:15:52;;;;;;;8.23;2.60;;;15.50;62.80;;;18.31;48.56;102220.25;5096253;28;20184;-64
2022/06/14 02:18:28;;;;;;;5.50;2.00;;;15.50;62.90;;;18.26;48.98;102218.16;5096638;28;20181;-64
2022/06/14 02:21:05;;;;;;;3.40;2.17;;;15.50;63.10;;;18.24;48.76;102214.88;5095541;28;20218;-63
2022/06/14 02:23:39;;;;;;;7.03;3.13;;;15.50;63.10;;;18.25;48.82;102213.88;5096228;28;20188;-63
2022/06/14 02:26:15;;;;;;;8.63;2.77;;;15.50;63.20;;;18.26;49.09;102213.66;5095630;28;20193;-64
2022/06/14 02:28:51;;;;;;;5.73;2.60;;;15.50;63.30;;;18.31;48.92;102205.09;5096106;28;20196;-63
2022/06/14 02:31:27;;;;;;;9.03;2.40;;;15.50;63.30;;;18.37;48.65;102219.53;5095294;28;20307;-63
2022/06/14 02:34:02;;;;;;;5.23;2.57;;;15.50;63.10;;;18.34;48.81;102207.41;5095473;28;20180;-63
2022/06/14 02:36:36;;;;;;;5.60;2.10;;;15.50;63.10;;;18.31;48.62;102205.09;5095999;28;20606;-63
2022/06/14 02:39:16;;;;;;;5.47;2.20;;;15.50;63.10;;;18.24;48.81;102206.88;5095559;28;20191;-62
2022/06/14 02:42:00;;;;;;;5.37;2.23;;;15.40;63.10;;;18.14;49.09;102209.00;5095335;28;20317;-63
2022/06/14 02:44:36;;;;;;;5.57;2.43;;;15.40;63.40;;;18.10;49.06;102216.56;5102995;28;20260;-63
2022/06/14 02:47:14;;;;;;;5.70;2.43;;;15.40;63.70;;;18.07;49.15;102211.59;5114909;28;20272;-64
2022/06/14 02:49:51;;;;;;;5.03;2.57;;;15.30;63.80;;;18.05;49.41;102216.28;5115498;28;20192;-63
2022/06/14 02:52:28;;;;;;;5.30;2.20;;;15.30;64.20;;;18.06;49.51;102211.78;5115295;28;20207;-64
2022/06/14 02:55:03;;;;;;;8.47;2.77;;;15.30;64.00;;;18.05;49.39;102212.78;5115492;28;20199;-64
2022/06/14 02:57:43;;;;;;;8.27;3.27;;;15.30;64.20;;;18.07;49.69;102218.75;5116456;28;20188;-64
2022/06/14 03:00:17;;;;;;;4.43;2.40;;;15.30;64.30;;;18.10;49.05;102216.56;5114776;28;20668;-64
2022/06/14 03:02:51;;;;;;;7.90;2.90;;;15.30;64.20;;;18.09;49.69;102217.56;5074033;28;20219;-63
2022/06/14 03:05:29;;;;;;;5.43;2.93;;;15.30;64.50;;;18.07;49.38;102219.59;5075102;28;20655;-63
2022/06/14 03:08:05;;;;;;;5.73;2.53;;;15.30;64.30;;;18.08;49.61;102225.75;5074521;28;20211;-63
2022/06/14 03:10:43;;;;;;;6.17;2.70;;;15.30;64.70;;;18.09;49.62;102212.22;5074030;28;20199;-63
2022/06/14 03:13:27;;;;;;;7.87;2.70;;;15.30;64.60;;;18.15;49.68;102205.34;5074715;28;20667;-64
2022/06/14 03:16:09;;;;;;;5.20;2.60;;;15.30;64.60;;;18.20;49.63;102197.59;5074523;28;20192;-63
2022/06/14 03:18:50;;;;;;;6.03;2.57;;;15.40;64.40;;;18.22;49.49;102191.06;5096592;28;20179;-63
2022/06/14 03:21:24;;;;;;;7.07;2.90;;;15.40;64.10;;;18.28;49.43;102184.97;5114993;28;20704;-62
2022/06/14 03:24:07;;;;;;;10.63;3.10;;;15.40;64.20;;;18.33;49.34;102192.41;5115104;28;20187;-62
2022/06/14 03:26:55;;;;;;;7.87;3.20;;;15.50;63.90;;;18.39;49.01;102206.81;5075261;28;20189;-63
2022/06/14 03:29:37;;;;;;;6.13;2.17;;;15.60;63.90;;;18.41;49.04;102196.78;5074774;28;20562;-62
2022/06/14 03:32:13;;;;;;;7.87;2.80;;;15.60;63.70;;;18.48;49.12;102200.38;5073904;28;20209;-62
2022/06/14 03:34:48;;;;;;;5.93;2.57;;;15.70;63.70;;;18.54;49.16;102188.97;5079782;28;20191;-63
2022/06/14 03:37:16;;;;;;;6.23;2.13;;;15.70;63.60;;;18.60;48.71;102191.69;5094338;28;20643;-62
2022/06/14 03:39:51;;;;;;;5.47;2.97;;;15.70;63.10;;;18.59;48.49;102208.69;5094212;28;20199;-63
2022/06/14 03:42:19;;;;;;;6.53;2.90;;;15.80;62.80;;;18.56;48.20;102210.94;5093651;28;20731;-61
2022/06/14 03:44:49;;;;;;;5.43;2.40;;;15.80;62.50;;;18.48;48.09;102206.53;5094410;28;20220;-63
2022/06/14 03:47:22;;;;;;;8.13;3.23;;;15.80;62.50;;;18.39;48.28;102207.66;5094394;28;20217;-64
2022/06/14 03:49:54;;;;;;;4.40;2.90;;;15.60;62.40;;;18.32;48.38;102201.44;5094189;28;20188;-65
2022/06/14 03:52:51;;;;;;;8.93;2.97;;;15.60;62.80;;;18.24;48.86;102194.38;5102650;28;20247;-62
2022/06/14 03:55:53;;;;;;;8.20;3.40;;;15.60;63.10;;;18.21;48.99;102202.72;5114407;28;20194;-62
2022/06/14 03:58:47;;;;;;;6.83;3.27;;;15.50;63.30;;;18.15;48.75;102200.00;5113910;28;20195;-62
2022/06/14 04:01:24;;;;;;;7.87;3.80;;;15.40;63.30;;;18.16;49.18;102204.34;5113893;28;20214;-63
2022/06/14 04:04:22;;;;;;;5.97;3.27;;;15.40;63.90;;;18.13;49.33;102207.38;5114230;28;20191;-64
2022/06/14 04:07:05;;;;;;;8.40;3.20;;;15.40;64.10;;;18.14;49.17;102214.34;5114079;28;20200;-65
2022/06/14 04:09:50;;;;;;;14.37;3.53;;;15.40;64.10;;;18.11;49.19;102220.06;5112033;28;20653;-62
2022/06/14 04:12:32;;;;;;;6.87;3.30;;;15.30;64.30;;;18.08;49.58;102221.25;5113168;28;20218;-62
2022/06/14 04:15:20;;;;;;;6.33;3.40;;;15.30;64.50;;;18.04;49.70;102235.16;5113778;28;20251;-62
2022/06/14 04:18:34;;;;;;;11.57;3.47;;;15.30;64.70;;;17.98;49.81;102217.22;5113702;28;20184;-61
2022/06/14 04:21:02;;;;;;;5.90;3.37;;;15.20;64.80;;;17.94;50.07;102213.28;5113317;28;20294;-61
2022/06/14 04:23:40;;;;;;;8.27;4.20;;;15.20;65.20;;;17.92;50.16;102216.16;5113462;28;20199;-60
2022/06/14 04:26:19;;;;;;;9.03;3.57;;;15.10;65.40;;;17.90;50.14;102212.81;5111815;28;20187;-61
2022/06/14 04:28:59;;;;;;;8.73;5.00;;;15.10;65.50;;;17.88;50.29;102214.00;5113571;28;20222;-62
2022/06/14 04:31:34;;;;;;;10.00;4.40;;;15.10;65.80;;;17.89;50.51;102213.84;5113066;28;20233;-62
2022/06/14 04:34:14;;;;;;;11.37;3.90;;;15.10;65.60;;;17.90;50.44;102206.69;5113473;28;20199;-63
2022/06/14 04:36:54;;;;;;;7.37;4.27;;;15.10;65.90;;;17.94;50.52;102206.13;5114055;28;20266;-63
2022/06/14 04:39:33;;;;;;;10.63;3.73;;;15.10;66.20;;;17.99;50.52;102205.56;5113812;28;20226;-63
2022/06/14 04:42:08;;;;;;;6.90;3.87;;;15.10;66.20;;;18.01;50.43;102209.69;5113093;28;20294;-63
2022/06/14 04:44:47;;;;;;;5.90;3.93;;;15.20;66.10;;;18.02;50.48;102208.66;5073015;28;20197;-62
2022/06/14 04:47:22;;;;;;;10.77;3.80;;;15.20;65.90;;;18.08;50.34;102209.75;5072596;28;20236;-63
2022/06/14 04:50:00;;;;;;;6.47;3.37;;;15.20;66.20;;;18.14;50.37;102214.34;5072988;28;20655;-65
2022/06/14 04:52:34;;;;;;;8.33;3.27;;;15.20;66.10;;;18.23;50.42;102213.22;5071639;28;20628;-64
2022/06/14 04:55:10;;;;;;;6.67;3.87;;;15.30;66.20;;;18.31;50.07;102213.09;5073095;28;20211;-62
2022/06/14 04:57:44;;;;;;;7.17;3.37;;;15.30;66.10;;;18.39;50.09;102212.16;5072558;28;20186;-60
2022/06/14 05:00:17;;;;;;;7.33;3.30;;;15.40;66.00;;;18.46;49.77;102215.75;5085342;28;20234;-64
2022/06/14 05:02:52;;;;;;;8.67;3.33;;;15.40;65.80;;;18.52;49.67;102213.13;5095716;28;20213;-63
2022/06/14 05:05:29;;;;;;;8.50;3.93;;;15.50;65.60;;;18.58;49.74;102217.72;5093047;28;20207;-61
2022/06/14 05:08:04;;;;;;;11.07;3.43;;;15.60;65.50;;;18.66;49.48;102220.25;5092768;28;20215;-63
2022/06/14 05:10:39;;;;;;;6.20;3.20;;;15.60;65.40;;;18.72;49.23;102216.84;5095690;27;20219;-63
2022/06/14 05:13:15;;;;;;;6.83;3.60;;;15.70;65.30;;;18.79;49.25;102215.03;5096419;28;20211;-63
2022/06/14 05:15:50;;;;;;;7.80;4.07;;;15.70;65.10;;;18.91;49.05;102224.19;5097476;28;20649;-64
2022/06/14 05:18:26;;;;;;;12.93;4.07;;;15.80;65.00;;;18.99;48.71;102230.41;5096280;28;20252;-62
2022/06/14 05:21:01;;;;;;;6.27;2.97;;;15.90;64.80;;;19.02;48.50;102230.03;5095820;28;20258;-63
2022/06/14 05:23:37;;;;;;;7.70;3.50;;;15.90;64.30;;;19.08;48.57;102239.91;5096094;28;20270;-61
2022/06/14 05:26:23;;;;;;;8.17;3.77;;;16.00;64.30;;;19.16;48.59;102237.13;5095106;28;20670;-62
2022/06/14 05:29:08;;;;;;;8.07;4.33;;;16.10;64.40;;;19.27;48.50;102241.91;5096259;28;20299;-62
2022/06/14 05:31:45;;;;;;;9.40;3.60;;;16.20;64.40;;;19.37;48.31;102239.75;5095996;28;20211;-64
2022/06/14 05:34:27;;;;;;;8.13;4.23;;;16.20;64.20;;;19.46;48.00;102230.56;5096770;28;20200;-63
2022/06/14 05:37:03;;;;;;;8.50;3.73;;;16.30;64.10;;;19.49;47.81;102227.53;5095564;27;20387;-64
2022/06/14 05:39:43;;;;;;;8.93;4.00;;;16.40;63.90;;;19.53;48.13;102228.75;5096297;28;20189;-63
2022/06/14 05:42:17;;;;;;;6.00;3.43;;;16.40;63.80;;;19.59;47.81;102230.63;5095003;28;20670;-63
2022/06/14 05:44:49;;;;;;;7.50;3.37;;;16.50;63.50;;;19.66;47.92;102228.81;5095891;28;20210;-64
2022/06/14 05:47:25;;;;;;;11.73;4.20;;;16.60;63.50;;;19.75;47.36;102226.84;5095083;28;20192;-64
2022/06/14 05:50:00;;;;;;;9.70;3.47;;;16.60;63.20;;;19.77;47.20;102236.31;5095311;28;20230;-64
2022/06/14 05:52:34;;;;;;;8.93;3.87;;;16.70;62.60;;;19.78;47.07;102237.94;5110472;28;20701;-63
2022/06/14 05:55:13;;;;;;;7.53;3.00;;;16.70;62.60;;;19.84;47.34;102234.50;5095804;28;20192;-64
2022/06/14 05:57:47;;;;;;;11.33;4.07;;;16.80;62.40;;;19.88;46.97;102243.75;5094671;28;20682;-63
2022/06/14 06:00:23;;;;;;;7.00;3.07;;;16.80;62.20;;;19.90;46.87;102247.03;5095939;28;20207;-63
2022/06/14 06:03:01;;;;;;;8.80;3.53;;;16.80;62.10;;;19.91;47.10;102247.88;5095946;28;20184;-62
2022/06/14 06:05:35;;;;;;;7.23;3.00;;;16.80;62.20;;;19.94;46.65;102251.00;5094846;27;20180;-64
2022/06/14 06:08:12;;;;;;;5.70;2.63;;;16.90;62.20;;;19.97;47.06;102253.25;5095051;28;20212;-63
2022/06/14 06:10:45;;;;;;;8.03;3.40;;;16.90;62.00;;;20.00;46.80;102254.69;5093621;28;20192;-65
2022/06/14 06:13:22;;;;;;;10.27;3.23;;;17.00;62.00;;;20.01;46.71;102249.16;5108747;28;20204;-64
2022/06/14 06:15:56;;;;;;;7.70;3.47;;;17.00;61.90;;;20.03;46.91;102252.47;5107988;28;20249;-63
2022/06/14 06:18:31;;;;;;;9.70;3.83;;;17.00;61.60;;;20.04;46.47;102259.44;5095859;27;20195;-61
2022/06/14 06:21:09;;;;;;;10.03;3.13;;;17.00;61.50;;;20.08;46.28;102260.72;5102126;28;20210;-65
2022/06/14 06:24:00;;;;;;;7.83;3.00;;;17.00;61.50;;;20.11;46.72;102252.28;5113912;27;20191;-63
2022/06/14 06:26:40;;;;;;;8.10;3.37;;;17.10;61.50;;;20.18;46.26;102255.78;5094599;28;20185;-64
2022/06/14 06:29:26;;;;;;;10.13;3.63;;;17.20;61.40;;;20.24;46.42;102263.06;5091593;27;20239;-63
2022/06/14 06:31:54;;;;;;;9.77;3.73;;;17.20;61.00;;;20.30;46.22;102263.28;5086869;28;20689;-64
2022/06/14 06:34:22;;;;;;;7.87;3.37;;;17.20;60.80;;;20.33;45.87;102254.84;5106299;28;20193;-65
2022/06/14 06:37:05;;;;;;;9.17;3.40;;;17.30;60.60;;;20.40;45.99;102259.19;5073344;28;20199;-63
2022/06/14 06:39:46;;;;;;;7.27;3.33;;;17.30;60.50;;;20.54;45.31;102262.75;5090180;27;20212;-62
2022/06/14 06:42:25;;;;;;;7.97;3.23;;;17.40;60.40;;;20.71;45.11;102255.97;5081943;28;20547;-65
2022/06/14 06:45:07;;;;;;;12.27;3.57;;;17.50;60.00;;;20.82;44.91;102253.50;5092871;28;20184;-65
2022/06/14 06:47:41;;;;;;;11.00;3.27;;;17.60;59.50;;;20.86;44.32;102264.63;5098789;28;20191;-64
2022/06/14 06:50:22;;;;;;;8.23;3.03;;;17.70;59.00;;;20.93;44.40;102258.28;5103147;28;20215;-63
2022/06/14 06:53:12;;;;;;;6.07;2.30;;;17.80;59.20;;;20.98;44.15;102257.66;5104898;27;20276;-63
2022/06/14 06:55:52;;;;;;;8.17;2.70;;;17.90;58.70;;;20.95;44.04;102252.69;5096126;28;20212;-63
2022/06/14 06:58:28;;;;;;;9.33;6.20;;;18.00;58.40;;;21.02;44.50;102248.16;5108248;28;20629;-64
2022/06/14 07:01:00;;;;;;;6.40;3.30;;;18.10;58.50;;;21.14;44.49;102251.91;5110716;28;20207;-63
2022/06/14 07:03:41;;;;;;;6.83;2.47;;;18.20;58.50;;;21.28;43.41;102258.06;5101755;27;20205;-63
2022/06/14 07:06:19;;;;;;;9.47;3.47;;;18.30;58.10;;;21.39;43.10;102260.97;5076757;28;20188;-63
2022/06/14 07:09:00;;;;;;;7.10;3.20;;;18.30;57.70;;;21.46;42.81;102261.78;5091211;28;20338;-62
2022/06/14 07:11:38;;;;;;;5.63;2.50;;;18.40;58.00;;;21.55;42.94;102267.72;5090082;28;20301;-65
2022/06/14 07:14:16;;;;;;;13.10;3.37;;;18.40;57.30;;;21.68;42.49;102270.38;5087873;27;20204;-64
2022/06/14 07:16:53;;;;;;;7.43;2.73;;;18.50;57.30;;;21.76;42.50;102263.97;5121431;27;20196;-64
2022/06/14 07:19:31;;;;;;;9.13;3.10;;;18.50;56.60;;;21.80;42.12;102268.69;5090030;28;20200;-65
2022/06/14 07:22:15;;;;;;;8.87;2.60;;;18.60;56.40;;;21.82;41.55;102268.50;5092937;28;20236;-63
2022/06/14 07:24:56;;;;;;;5.87;3.17;;;18.60;55.90;;;21.88;41.78;102270.34;5095850;28;20191;-64
2022/06/14 07:28:01;;;;;;;8.63;3.27;;;18.70;56.20;;;21.92;41.48;102272.41;5098576;27;20228;-64
2022/06/14 07:30:51;;;;;;;8.30;2.47;;;18.70;55.70;;;21.93;41.33;102273.22;5099612;28;20278;-63
2022/06/14 07:33:27;;;;;;;6.53;2.80;;;18.80;55.80;;;22.01;41.24;102265.75;5091977;28;20303;-63
2022/06/14 07:35:59;;;;;;;6.40;2.80;;;18.80;55.60;;;22.16;40.67;102270.84;5089956;28;20250;-63
2022/06/14 07:38:38;;;;;;;6.30;2.60;;;18.90;55.00;;;22.24;40.13;102273.31;5091519;28;20188;-63
2022/06/14 07:41:16;;;;;;;6.43;2.33;;;18.90;53.80;;;22.31;39.83;102276.78;5088170;27;20220;-64
2022/06/14 07:44:02;;;;;;;8.43;2.33;;;19.00;53.60;;;22.38;39.53;102276.75;5080375;28;20219;-63
2022/06/14 07:46:39;;;;;;;11.17;5.93;;;19.10;53.50;;;22.44;39.32;102278.59;5079934;28;20287;-64
2022/06/14 07:49:14;;;;;;;6.77;2.80;;;19.20;53.60;;;22.60;39.32;102286.13;5080722;28;20207;-63
2022/06/14 07:51:53;;;;;;;5.90;2.60;;;19.30;53.10;;;22.75;39.03;102281.28;5080228;28;20224;-63
2022/06/14 07:54:33;;;;;;;6.70;2.73;;;19.40;52.90;;;22.87;38.36;102279.56;5078285;28;20257;-65
2022/06/14 07:57:10;;;;;;;9.23;4.20;;;19.40;52.00;;;22.94;38.21;102272.28;5079212;28;20204;-64
2022/06/14 07:59:48;;;;;;;11.87;5.57;;;19.50;51.80;;;23.04;38.13;102277.16;5077297;28;20199;-63
2022/06/14 08:02:31;;;;;;;8.27;2.30;;;19.60;51.80;;;23.03;37.20;102275.53;5076514;27;20217;-64
2022/06/14 08:05:10;;;;;;;10.23;2.80;;;19.70;49.70;;;22.92;36.88;102261.75;5079975;28;20200;-63
2022/06/14 08:07:39;;;;;;;7.73;3.57;;;19.70;49.40;;;22.89;37.04;102267.56;5078008;28;20196;-64
2022/06/14 08:10:16;;;;;;;5.80;2.83;;;19.70;50.00;;;22.97;37.22;102277.22;5080059;28;20704;-62
2022/06/14 08:12:52;;;;;;;6.67;3.10;;;19.70;50.90;;;23.11;36.95;102280.63;5079998;28;21025;-63
2022/06/14 08:15:27;;;;;;;5.23;2.37;;;19.70;49.90;;;23.18;36.65;102274.16;5079645;28;20195;-62
2022/06/14 08:18:04;;;;;;;4.07;2.60;;;19.80;49.40;;;23.23;36.74;102268.94;5078146;28;20235;-62
2022/06/14 08:20:41;;;;;;;7.27;4.23;;;19.90;50.00;;;23.28;36.98;102258.34;5078232;28;20203;-63
2022/06/14 08:23:16;;;;;;;5.70;3.00;;;19.90;50.10;;;23.52;36.79;102262.06;5075910;28;20382;-63
2022/06/14 08:25:52;;;;;;;5.90;2.70;;;20.00;50.20;;;24.29;35.98;102265.97;5076269;28;20311;-65
2022/06/14 08:28:29;;;;;;;7.67;3.17;;;20.20;50.60;;;25.52;33.70;102268.59;5076385;28;20214;-65
2022/06/14 08:31:09;;;;;;;7.70;2.87;;;20.60;49.30;;;26.69;32.29;102264.47;5076455;28;20238;-65
2022/06/14 08:33:47;;;;;;;5.93;2.40;;;21.20;48.10;;;28.03;29.42;102268.69;5080030;28;20192;-63
2022/06/14 08:36:24;;;;;;;5.67;2.20;;;21.90;45.00;;;28.36;28.09;102266.88;5080035;28;20212;-64
2022/06/14 08:39:17;;;;;;;6.07;2.77;;;22.50;42.60;;;28.42;28.26;102268.56;5078123;28;20192;-64
2022/06/14 08:42:00;;;;;;;7.80;2.27;;;23.00;42.60;;;28.92;27.40;102258.22;5074796;28;20227;-63
2022/06/14 08:44:36;;;;;;;6.23;2.43;;;23.40;41.10;;;28.72;27.59;102263.44;5076427;28;20192;-65
2022/06/14 08:47:37;;;;;;;4.53;2.30;;;23.70;40.50;;;28.74;27.25;102261.31;5083242;28;20608;-63
2022/06/14 08:50:21;;;;;;;6.20;3.30;;;23.80;39.20;;;29.40;26.12;102265.34;5082918;28;20213;-64
2022/06/14 08:53:36;;;;;;;5.77;2.50;;;23.90;39.10;;;30.88;25.12;102265.56;5086821;28;20292;-63
2022/06/14 08:56:22;;;;;;;5.17;2.60;;;24.40;37.80;;;32.04;24.19;102264.25;5075808;28;20213;-63
2022/06/14 08:59:40;;;;;;;7.77;5.93;;;25.10;37.50;;;32.00;23.23;102263.16;5080297;28;20608;-63
2022/06/14 09:02:58;;;;;;;5.63;2.77;;;25.80;35.90;;;30.97;24.82;102270.22;5080299;28;20278;-64
2022/06/14 09:05:57;;;;;;;6.30;2.60;;;25.90;35.40;;;29.65;26.09;102268.19;5080956;28;20200;-64
2022/06/14 09:09:30;;;;;;;3.33;2.20;;;25.60;35.40;;;28.40;27.00;102276.13;5078380;28;20232;-65
2022/06/14 09:12:26;;;;;;;18.97;16.23;;;25.10;36.20;;;27.41;28.44;102259.16;5073369;28;20220;-63
2022/06/14 09:15:36;;;;;;;8.10;3.40;;;24.40;37.50;;;26.64;30.01;102277.91;5078387;28;20209;-64
2022/06/14 09:18:18;;;;;;;3.30;2.40;;;23.80;38.80;;;26.09;30.00;102264.13;5079889;28;20211;-63
2022/06/14 09:21:16;;;;;;;3.63;2.50;;;23.20;39.60;;;25.58;30.37;102260.63;5083079;28;20311;-62
2022/06/14 09:24:13;;;;;;;7.00;2.13;;;22.70;39.90;;;25.10;30.90;102264.34;5083876;28;20192;-64
2022/06/14 09:27:07;;;;;;;5.87;2.73;;;22.20;40.80;;;24.87;32.04;102264.28;5083059;28;20280;-62
2022/06/14 09:30:22;;;;;;;6.03;3.37;;;21.90;41.40;;;24.84;31.66;102264.78;5082354;28;20311;-64
2022/06/14 09:33:28;;;;;;;5.50;2.50;;;21.70;42.20;;;24.92;31.88;102256.34;5084117;28;20205;-63
2022/06/14 09:36:57;;;;;;;9.00;2.70;;;21.60;42.80;;;24.81;32.26;102267.94;5084063;28;20237;-63
2022/06/14 09:40:07;;;;;;;7.00;2.37;;;21.50;43.20;;;24.93;32.13;102263.38;5084634;28;20221;-63
2022/06/14 09:43:15;;;;;;;3.60;2.30;;;21.50;43.40;;;25.18;31.57;102263.97;5081749;28;20662;-64
2022/06/14 09:46:33;;;;;;;4.80;2.57;;;21.50;43.40;;;25.76;30.84;102265.84;5084556;28;20239;-63
2022/06/14 09:50:13;;;;;;;7.43;2.50;;;21.60;42.70;;;28.15;28.18;102257.69;5065453;28;20242;-63
2022/06/14 09:53:38;;;;;;;4.67;2.40;;;22.10;42.10;;;30.76;26.07;102258.47;5077973;28;20325;-64
2022/06/14 09:56:32;;;;;;;7.60;2.57;;;23.10;41.10;;;31.77;23.08;102252.88;5081324;28;20224;-66
2022/06/14 09:59:36;;;;;;;4.20;2.43;;;24.10;36.90;;;31.99;21.80;102255.28;5083097;28;20196;-64
2022/06/14 10:02:20;;;;;;;5.00;2.17;;;24.90;34.90;;;31.97;21.38;102252.81;5083922;28;20607;-65
2022/06/14 10:05:29;;;;;;;4.83;2.90;;;25.40;33.30;;;32.69;20.97;102254.00;5083578;28;20204;-65
2022/06/14 10:08:31;;;;;;;3.90;1.80;;;25.80;32.90;;;33.32;18.96;102246.59;5080208;28;20205;-65
2022/06/14 10:11:31;;;;;;;4.77;2.60;;;26.30;30.10;;;33.94;19.89;102253.78;5083276;28;20251;-64
2022/06/14 10:14:37;;;;;;;6.37;4.30;;;26.90;30.60;;;33.90;19.98;102266.44;5083391;28;20197;-64
2022/06/14 10:17:49;;;;;;;3.83;2.13;;;27.40;29.90;;;33.41;20.74;102256.59;5074368;28;20208;-64
2022/06/14 10:20:42;;;;;;;7.80;3.37;;;27.70;30.00;;;32.56;21.61;102251.94;5082928;28;20855;-66
2022/06/14 10:23:44;;;;;;;3.87;2.70;;;27.60;29.50;;;31.43;22.51;102254.63;5081833;28;20217;-64
2022/06/14 10:29:39;;;;;;;3.87;2.40;;;26.90;30.30;;;29.68;24.11;102256.81;5080740;28;20325;-64
2022/06/14 10:32:45;;;;;;;10.50;7.90;;;26.40;31.30;;;29.01;24.60;102259.34;5080585;28;20286;-65
2022/06/14 10:35:24;;;;;;;8.00;3.30;;;25.90;32.00;;;28.65;25.70;102262.84;5067150;28;20716;-64
2022/06/14 10:38:47;;;;;;;7.00;3.70;;;25.40;32.60;;;29.31;24.89;102262.31;5081669;28;20193;-66
2022/06/14 10:41:29;;;;;;;6.27;3.27;;;25.10;33.40;;;30.67;23.96;102248.41;5081958;28;20313;-64
2022/06/14 10:44:14;;;;;;;6.57;3.00;;;25.20;34.10;;;31.12;22.38;102261.22;5079970;27;20666;-65
2022/06/14 10:46:58;;;;;;;6.80;2.70;;;25.40;33.00;;;31.14;23.09;102259.03;5080977;28;20275;-63
2022/06/14 10:50:06;;;;;;;7.13;4.73;;;25.60;33.00;;;30.83;23.67;102250.06;5080766;28;20783;-63
2022/06/14 10:52:57;;;;;;;5.87;2.50;;;25.80;33.00;;;30.31;23.02;102250.25;5080943;28;20242;-63
2022/06/14 10:55:54;;;;;;;4.53;2.43;;;25.90;31.80;;;29.89;23.62;102247.69;5095535;27;20210;-65
2022/06/14 10:59:16;;;;;;;4.80;2.87;;;26.00;32.90;;;29.83;24.51;102247.94;5078974;28;20240;-64
2022/06/14 11:01:56;;;;;;;5.43;3.53;;;25.90;32.50;;;30.11;23.92;102247.50;5073002;28;20955;-64
2022/06/14 11:04:35;;;;;;;8.73;4.57;;;25.90;32.70;;;30.14;23.65;102249.69;5081374;28;20208;-63
2022/06/14 11:07:27;;;;;;;5.00;2.30;;;25.90;32.50;;;29.79;23.69;102247.66;5078518;27;20712;-65
2022/06/14 11:10:23;;;;;;;10.90;7.63;;;25.80;32.10;;;29.23;24.57;102249.25;5081445;28;20351;-63
2022/06/14 11:13:08;;;;;;;3.43;2.60;;;25.60;32.10;;;28.76;25.00;102249.13;5080181;28;20196;-66
2022/06/14 11:15:44;;;;;;;6.60;2.43;;;25.40;32.60;;;28.33;25.62;102249.25;5082197;28;20204;-65
2022/06/14 11:18:59;;;;;;;7.40;4.07;;;25.10;33.20;;;27.78;26.54;102240.44;5084907;28;20201;-63
2022/06/14 11:21:53;;;;;;;6.10;2.40;;;24.70;33.80;;;27.48;26.63;102233.56;5081531;28;20331;-63